Time;durP1;ratioP1;P1;durP2;ratioP2;P2;SDS_P1;SDS_P2;PMS_P1;PMS_P2;Temp;Humidity;BMP_temperature;BMP_pressure;BME280_temperature;BME280_humidity;BME280_pressure;Samples;Min_cycle;Max_cycle;Signal;HPM_P1;HPM_P2
2023/12/12 00:01:34;;;;;;;11.07;10.27;;;;;;;;;;4980811;28;20479;-43
2023/12/12 00:04:00;;;;;;;10.95;10.05;;;;;;;;;;4981326;28;20260;-43
2023/12/12 00:06:26;;;;;;;12.70;11.80;;;;;;;;;;4980898;28;20305;-42
2023/12/12 00:08:52;;;;;;;10.80;10.00;;;;;;;;;;4980007;28;20516;-43
2023/12/12 00:11:18;;;;;;;12.17;11.30;;;;;;;;;;4985512;28;20494;-42
2023/12/12 00:13:44;;;;;;;14.80;13.55;;;;;;;;;;4983080;28;20416;-43
2023/12/12 00:16:10;;;;;;;14.60;13.37;;;;;;;;;;4977825;28;20568;-43
2023/12/12 00:18:36;;;;;;;13.57;12.48;;;;;;;;;;4978187;28;20407;-43
2023/12/12 00:21:03;;;;;;;11.07;10.25;;;;;;;;;;4982121;28;20270;-43
2023/12/12 00:23:29;;;;;;;12.05;11.25;;;;;;;;;;4984408;28;20557;-43
2023/12/12 00:25:55;;;;;;;11.57;10.77;;;;;;;;;;4981472;28;20182;-43
2023/12/12 00:28:21;;;;;;;16.60;15.37;;;;;;;;;;4983975;28;20420;-43
2023/12/12 00:30:47;;;;;;;11.63;10.83;;;;;;;;;;4982156;28;20424;-43
2023/12/12 00:33:13;;;;;;;10.75;10.00;;;;;;;;;;4976921;28;20815;-43
2023/12/12 00:35:39;;;;;;;11.27;10.47;;;;;;;;;;4986198;28;20287;-42
2023/12/12 00:38:05;;;;;;;11.83;10.93;;;;;;;;;;4985729;28;20479;-43
2023/12/12 00:40:32;;;;;;;13.60;12.50;;;;;;;;;;4986681;28;20420;-42
2023/12/12 00:42:58;;;;;;;15.45;14.45;;;;;;;;;;4985675;28;20433;-43
2023/12/12 00:45:24;;;;;;;12.88;12.02;;;;;;;;;;4986011;28;20696;-44
2023/12/12 00:47:50;;;;;;;10.95;10.25;;;;;;;;;;4985224;28;20279;-43
2023/12/12 00:50:16;;;;;;;13.83;12.90;;;;;;;;;;4984405;28;20634;-43
2023/12/12 00:52:42;;;;;;;12.57;11.68;;;;;;;;;;4988796;28;20416;-43
2023/12/12 00:55:08;;;;;;;14.25;13.25;;;;;;;;;;4983672;28;20226;-42
2023/12/12 00:57:34;;;;;;;13.63;12.70;;;;;;;;;;4984522;28;20181;-42
2023/12/12 01:00:00;;;;;;;12.65;11.70;;;;;;;;;;4984672;28;20197;-42
2023/12/12 01:02:26;;;;;;;12.43;11.53;;;;;;;;;;4984535;28;20269;-43
2023/12/12 01:04:53;;;;;;;12.02;11.13;;;;;;;;;;4984459;28;20519;-43
2023/12/12 01:07:19;;;;;;;13.93;12.93;;;;;;;;;;4989729;28;20182;-43
2023/12/12 01:09:45;;;;;;;13.27;12.27;;;;;;;;;;4986945;28;20224;-43
2023/12/12 01:12:11;;;;;;;12.10;11.20;;;;;;;;;;4981915;28;20185;-43
2023/12/12 01:14:37;;;;;;;12.33;11.43;;;;;;;;;;4982160;28;20228;-43
2023/12/12 01:17:04;;;;;;;12.20;11.30;;;;;;;;;;4985749;28;20471;-43
2023/12/12 01:19:30;;;;;;;13.45;12.52;;;;;;;;;;4987367;28;20193;-43
2023/12/12 01:21:56;;;;;;;12.45;11.55;;;;;;;;;;4985001;28;20184;-43
2023/12/12 01:24:22;;;;;;;12.55;11.65;;;;;;;;;;4987347;28;20177;-42
2023/12/12 01:26:48;;;;;;;11.30;10.50;;;;;;;;;;4986036;28;20184;-42
2023/12/12 01:29:16;;;;;;;12.77;11.88;;;;;;;;;;4979647;28;20422;-43
2023/12/12 01:31:43;;;;;;;11.32;10.52;;;;;;;;;;4981125;28;20281;-42
2023/12/12 01:34:09;;;;;;;12.32;11.43;;;;;;;;;;4986284;28;20189;-42
2023/12/12 01:36:35;;;;;;;11.70;10.82;;;;;;;;;;4985344;28;20223;-43
2023/12/12 01:39:01;;;;;;;10.67;9.87;;;;;;;;;;4984615;28;20173;-43
2023/12/12 01:41:27;;;;;;;11.07;10.38;;;;;;;;;;4984835;28;20409;-43
2023/12/12 01:43:53;;;;;;;10.80;10.00;;;;;;;;;;4984516;28;20259;-43
2023/12/12 01:46:19;;;;;;;11.97;11.10;;;;;;;;;;4982664;28;20420;-42
2023/12/12 01:48:47;;;;;;;10.88;10.07;;;;;;;;;;4988073;28;20416;-42
2023/12/12 01:51:13;;;;;;;11.93;11.02;;;;;;;;;;4982796;28;20764;-43
2023/12/12 01:53:41;;;;;;;10.05;9.27;;;;;;;;;;4983216;28;20173;-42
2023/12/12 01:56:08;;;;;;;11.77;10.85;;;;;;;;;;4984056;28;20196;-43
2023/12/12 01:58:34;;;;;;;13.48;12.38;;;;;;;;;;4983333;28;20276;-43
2023/12/12 02:01:00;;;;;;;10.73;9.90;;;;;;;;;;4984352;28;20205;-43
2023/12/12 02:03:27;;;;;;;9.20;8.52;;;;;;;;;;4978757;28;20185;-43
2023/12/12 02:05:59;;;;;;;10.55;9.75;;;;;;;;;;4964257;28;20182;-43
2023/12/12 02:08:29;;;;;;;17.52;15.93;;;;;;;;;;4962827;28;20724;-43
2023/12/12 02:10:55;;;;;;;10.30;9.50;;;;;;;;;;4970961;28;20630;-43
2023/12/12 02:13:22;;;;;;;10.15;9.35;;;;;;;;;;4956181;28;20174;-43
2023/12/12 02:15:48;;;;;;;9.45;8.85;;;;;;;;;;4955774;28;20198;-44
2023/12/12 02:18:14;;;;;;;10.05;9.35;;;;;;;;;;4971248;28;20178;-43
2023/12/12 02:20:40;;;;;;;10.67;9.93;;;;;;;;;;4963476;28;20507;-43
2023/12/12 02:23:07;;;;;;;8.60;8.00;;;;;;;;;;4963079;28;20520;-43
2023/12/12 02:25:33;;;;;;;10.88;10.07;;;;;;;;;;4971265;28;20174;-44
2023/12/12 02:28:00;;;;;;;9.90;9.20;;;;;;;;;;4955899;28;20569;-43
2023/12/12 02:30:26;;;;;;;9.70;8.95;;;;;;;;;;4974255;28;20698;-43
2023/12/12 02:32:52;;;;;;;9.20;8.50;;;;;;;;;;4959606;28;20193;-44
2023/12/12 02:35:18;;;;;;;9.25;8.55;;;;;;;;;;4966917;28;20215;-44
2023/12/12 02:37:44;;;;;;;8.87;8.27;;;;;;;;;;4967474;28;20166;-43
2023/12/12 02:40:10;;;;;;;8.90;8.25;;;;;;;;;;4958121;28;20544;-43
2023/12/12 02:42:37;;;;;;;9.57;8.88;;;;;;;;;;4974761;28;20545;-43
2023/12/12 02:45:03;;;;;;;10.13;9.40;;;;;;;;;;4955786;28;20177;-43
2023/12/12 02:47:30;;;;;;;10.65;9.85;;;;;;;;;;4970022;28;20184;-43
2023/12/12 02:49:56;;;;;;;10.57;9.77;;;;;;;;;;4963215;28;20571;-43
2023/12/12 02:52:22;;;;;;;9.88;9.18;;;;;;;;;;4961816;28;20413;-44
2023/12/12 02:54:48;;;;;;;10.25;9.45;;;;;;;;;;4972787;28;20186;-44
2023/12/12 02:57:14;;;;;;;10.40;9.60;;;;;;;;;;4974381;28;20172;-43
2023/12/12 02:59:39;;;;;;;10.53;9.83;;;;;;;;;;4973279;28;20475;-43
2023/12/12 03:02:05;;;;;;;10.30;9.70;;;;;;;;;;4959931;28;20484;-44
2023/12/12 03:04:31;;;;;;;10.63;9.93;;;;;;;;;;4965074;28;20420;-43
2023/12/12 03:06:57;;;;;;;11.00;10.23;;;;;;;;;;4967772;28;20945;-43
2023/12/12 03:09:23;;;;;;;12.13;11.23;;;;;;;;;;4956733;28;20824;-43
2023/12/12 03:11:51;;;;;;;10.67;9.97;;;;;;;;;;4974372;28;20427;-44
2023/12/12 03:14:17;;;;;;;9.93;9.23;;;;;;;;;;4955997;28;20505;-43
2023/12/12 03:16:43;;;;;;;11.13;10.43;;;;;;;;;;4968683;28;20300;-43
2023/12/12 03:19:10;;;;;;;12.03;11.17;;;;;;;;;;4963561;28;20414;-44
2023/12/12 03:21:36;;;;;;;10.50;9.80;;;;;;;;;;4960446;28;20424;-43
2023/12/12 03:24:01;;;;;;;11.47;10.67;;;;;;;;;;4971823;28;20176;-44
2023/12/12 03:26:27;;;;;;;10.07;9.40;;;;;;;;;;4954655;28;20421;-44
2023/12/12 03:28:53;;;;;;;10.87;10.13;;;;;;;;;;4971642;28;20424;-43
2023/12/12 03:31:19;;;;;;;13.23;12.30;;;;;;;;;;4960081;28;20491;-43
2023/12/12 03:33:45;;;;;;;9.75;9.15;;;;;;;;;;4963773;28;20507;-43
2023/12/12 03:36:11;;;;;;;9.30;8.63;;;;;;;;;;4967724;28;20292;-43
2023/12/12 03:38:37;;;;;;;11.80;10.90;;;;;;;;;;4955502;28;20405;-43
2023/12/12 03:41:03;;;;;;;10.17;9.47;;;;;;;;;;4973484;28;20186;-43
2023/12/12 03:43:29;;;;;;;10.05;9.35;;;;;;;;;;4956545;28;20414;-43
2023/12/12 03:45:55;;;;;;;10.30;9.60;;;;;;;;;;4966720;28;20203;-43
2023/12/12 03:48:21;;;;;;;10.70;9.90;;;;;;;;;;4972788;28;20432;-43
2023/12/12 03:50:49;;;;;;;10.45;9.70;;;;;;;;;;4968302;28;20437;-44
2023/12/12 03:53:15;;;;;;;10.70;9.90;;;;;;;;;;4955078;28;20194;-43
2023/12/12 03:55:41;;;;;;;10.02;9.43;;;;;;;;;;4973326;28;20189;-43
2023/12/12 03:58:07;;;;;;;8.90;8.30;;;;;;;;;;4972798;28;20180;-44
2023/12/12 04:00:33;;;;;;;10.63;9.93;;;;;;;;;;4960466;28;20476;-43
2023/12/12 04:02:59;;;;;;;9.47;8.77;;;;;;;;;;4962335;28;20432;-43
2023/12/12 04:05:25;;;;;;;9.77;9.13;;;;;;;;;;4968588;28;20433;-43
2023/12/12 04:07:51;;;;;;;11.00;10.17;;;;;;;;;;4954293;28;20513;-44
2023/12/12 04:10:18;;;;;;;10.40;9.63;;;;;;;;;;4972162;28;20469;-44
2023/12/12 04:12:44;;;;;;;8.90;8.20;;;;;;;;;;4956935;28;20497;-43
2023/12/12 04:15:10;;;;;;;9.40;8.70;;;;;;;;;;4965901;28;20198;-43
2023/12/12 04:17:36;;;;;;;9.43;8.82;;;;;;;;;;4964750;28;20637;-43
2023/12/12 04:20:02;;;;;;;10.27;9.57;;;;;;;;;;4957666;28;20212;-43
2023/12/12 04:22:28;;;;;;;10.77;9.98;;;;;;;;;;4972619;28;20794;-43
2023/12/12 04:24:54;;;;;;;9.70;9.00;;;;;;;;;;4954020;28;20189;-44
2023/12/12 04:27:20;;;;;;;9.97;9.23;;;;;;;;;;4969279;28;20409;-43
2023/12/12 04:29:47;;;;;;;9.30;8.63;;;;;;;;;;4960830;28;20434;-43
2023/12/12 04:32:13;;;;;;;8.20;7.60;;;;;;;;;;4961720;28;20885;-43
2023/12/12 04:34:39;;;;;;;9.40;8.73;;;;;;;;;;4968984;28;20189;-43
2023/12/12 04:37:05;;;;;;;9.73;9.03;;;;;;;;;;4953668;28;20408;-43
2023/12/12 04:39:31;;;;;;;9.37;8.67;;;;;;;;;;4972408;28;20456;-43
2023/12/12 04:41:57;;;;;;;7.60;7.10;;;;;;;;;;4957552;28;20406;-43
2023/12/12 04:44:23;;;;;;;9.57;8.87;;;;;;;;;;4964750;28;20182;-43
2023/12/12 04:46:49;;;;;;;6.95;6.45;;;;;;;;;;4965403;28;20428;-43
2023/12/12 04:49:16;;;;;;;8.30;7.70;;;;;;;;;;4956462;28;20686;-43
2023/12/12 04:51:42;;;;;;;7.88;7.32;;;;;;;;;;4973085;28;20771;-44
2023/12/12 04:54:08;;;;;;;8.87;8.23;;;;;;;;;;4954013;28;20175;-44
2023/12/12 04:56:34;;;;;;;7.60;7.10;;;;;;;;;;4968425;28;20460;-44
2023/12/12 04:59:00;;;;;;;8.20;7.60;;;;;;;;;;4961673;28;20416;-44
2023/12/12 05:01:27;;;;;;;8.23;7.63;;;;;;;;;;4960153;28;20925;-43
2023/12/12 05:03:53;;;;;;;7.60;7.05;;;;;;;;;;4969730;28;20406;-44
2023/12/12 05:06:19;;;;;;;7.70;7.10;;;;;;;;;;4953381;28;20178;-44
2023/12/12 05:08:45;;;;;;;9.93;9.23;;;;;;;;;;4971298;28;20181;-43
2023/12/12 05:11:14;;;;;;;9.15;8.50;;;;;;;;;;4957988;28;20634;-43
2023/12/12 05:13:40;;;;;;;7.25;6.75;;;;;;;;;;4964019;28;20186;-44
2023/12/12 05:16:09;;;;;;;9.70;9.00;;;;;;;;;;4965547;28;20197;-43
2023/12/12 05:18:36;;;;;;;9.55;8.77;;;;;;;;;;4956108;28;20276;-44
2023/12/12 05:21:02;;;;;;;8.30;7.70;;;;;;;;;;4973410;28;20657;-44
2023/12/12 05:23:28;;;;;;;8.73;8.13;;;;;;;;;;4957120;28;20186;-43
2023/12/12 05:25:54;;;;;;;8.10;7.50;;;;;;;;;;4971565;28;20183;-44
2023/12/12 05:28:21;;;;;;;9.30;8.60;;;;;;;;;;4964919;28;20449;-43
2023/12/12 05:30:47;;;;;;;7.68;7.07;;;;;;;;;;4963388;28;20986;-43
2023/12/12 05:33:13;;;;;;;8.90;8.20;;;;;;;;;;4972891;28;20205;-44
2023/12/12 05:35:39;;;;;;;8.98;8.38;;;;;;;;;;4956604;28;20460;-44
2023/12/12 05:38:06;;;;;;;8.40;7.80;;;;;;;;;;4974915;28;20177;-43
2023/12/12 05:40:32;;;;;;;9.13;8.45;;;;;;;;;;4960832;28;20190;-43
2023/12/12 05:42:58;;;;;;;9.57;8.95;;;;;;;;;;4966972;28;20188;-44
2023/12/12 05:45:24;;;;;;;9.30;8.70;;;;;;;;;;4969034;28;20189;-43
2023/12/12 05:47:50;;;;;;;9.00;8.35;;;;;;;;;;4959307;28;20428;-44
2023/12/12 05:50:16;;;;;;;8.25;7.65;;;;;;;;;;4975292;28;20558;-43
2023/12/12 05:52:42;;;;;;;8.90;8.30;;;;;;;;;;4957445;28;20193;-43
2023/12/12 05:55:08;;;;;;;7.95;7.45;;;;;;;;;;4970110;28;20971;-43
2023/12/12 05:57:35;;;;;;;8.30;7.75;;;;;;;;;;4975025;28;20182;-43
2023/12/12 06:00:01;;;;;;;9.18;8.57;;;;;;;;;;4968889;28;20215;-44
2023/12/12 06:02:27;;;;;;;9.68;8.88;;;;;;;;;;4958027;28;20199;-44
2023/12/12 06:04:53;;;;;;;6.80;6.25;;;;;;;;;;4975513;28;20174;-43
2023/12/12 06:07:19;;;;;;;7.47;6.87;;;;;;;;;;4957683;28;20244;-44
2023/12/12 06:09:45;;;;;;;7.00;6.47;;;;;;;;;;4969184;28;20443;-43
2023/12/12 06:12:11;;;;;;;8.55;7.90;;;;;;;;;;4965494;28;20416;-43
2023/12/12 06:14:37;;;;;;;8.40;7.70;;;;;;;;;;4961450;28;20252;-43
2023/12/12 06:17:03;;;;;;;8.53;7.83;;;;;;;;;;4973141;28;20464;-43
2023/12/12 06:19:29;;;;;;;7.47;6.88;;;;;;;;;;4955832;28;20537;-43
2023/12/12 06:21:55;;;;;;;7.43;6.82;;;;;;;;;;4972850;28;20680;-43
2023/12/12 06:24:22;;;;;;;8.10;7.50;;;;;;;;;;4961832;28;20264;-43
2023/12/12 06:26:48;;;;;;;8.25;7.55;;;;;;;;;;4964927;28;20464;-43
2023/12/12 06:29:14;;;;;;;8.67;7.90;;;;;;;;;;4969167;28;20198;-43
2023/12/12 06:31:40;;;;;;;9.60;8.77;;;;;;;;;;4956629;28;20936;-43
2023/12/12 06:34:07;;;;;;;9.00;8.37;;;;;;;;;;4980780;28;20184;-43
2023/12/12 06:36:34;;;;;;;8.13;7.53;;;;;;;;;;4984733;28;20467;-43
2023/12/12 06:39:00;;;;;;;8.18;7.55;;;;;;;;;;4984926;28;20176;-43
2023/12/12 06:41:26;;;;;;;10.40;9.50;;;;;;;;;;4980213;28;20185;-43
2023/12/12 06:43:52;;;;;;;9.23;8.50;;;;;;;;;;4985445;28;20415;-43
2023/12/12 06:46:18;;;;;;;8.63;7.97;;;;;;;;;;4983929;28;20239;-43
2023/12/12 06:48:44;;;;;;;8.57;7.88;;;;;;;;;;4982865;28;20420;-43
2023/12/12 06:51:10;;;;;;;9.53;8.73;;;;;;;;;;4984715;28;20207;-43
2023/12/12 06:53:36;;;;;;;8.95;8.25;;;;;;;;;;4982560;28;20424;-43
2023/12/12 06:56:03;;;;;;;10.55;9.82;;;;;;;;;;4983538;28;20208;-43
2023/12/12 06:58:29;;;;;;;13.68;12.50;;;;;;;;;;4981976;28;20264;-43
2023/12/12 07:00:55;;;;;;;10.25;9.52;;;;;;;;;;4987971;28;20204;-43
2023/12/12 07:03:24;;;;;;;10.55;9.85;;;;;;;;;;4982412;28;20191;-43
2023/12/12 07:05:51;;;;;;;10.70;9.90;;;;;;;;;;4980563;28;20184;-43
2023/12/12 07:08:18;;;;;;;11.05;10.07;;;;;;;;;;4983142;28;20360;-43
2023/12/12 07:10:44;;;;;;;10.38;9.57;;;;;;;;;;4982076;28;20200;-43
2023/12/12 07:13:10;;;;;;;8.60;7.80;;;;;;;;;;4984189;28;20288;-43
2023/12/12 07:15:36;;;;;;;8.68;7.95;;;;;;;;;;4985304;28;20460;-43
2023/12/12 07:18:02;;;;;;;9.03;8.27;;;;;;;;;;4986560;28;20233;-43
2023/12/12 07:20:28;;;;;;;8.63;7.93;;;;;;;;;;4981236;28;20920;-43
2023/12/12 07:22:55;;;;;;;8.13;7.43;;;;;;;;;;4978434;28;20437;-43
2023/12/12 07:25:21;;;;;;;10.30;9.50;;;;;;;;;;4985663;28;20423;-43
2023/12/12 07:27:47;;;;;;;10.70;9.80;;;;;;;;;;4983596;28;20167;-43
2023/12/12 07:30:13;;;;;;;7.35;6.70;;;;;;;;;;4984176;28;20435;-43
2023/12/12 07:32:39;;;;;;;9.15;8.40;;;;;;;;;;4983033;28;20177;-43
2023/12/12 07:35:06;;;;;;;9.20;8.40;;;;;;;;;;4983740;28;20208;-43
2023/12/12 07:37:32;;;;;;;8.13;7.43;;;;;;;;;;4979484;28;20406;-43
2023/12/12 07:39:58;;;;;;;9.73;8.93;;;;;;;;;;4983715;28;20196;-43
2023/12/12 07:42:24;;;;;;;11.10;10.10;;;;;;;;;;4983681;28;20190;-43
2023/12/12 07:44:50;;;;;;;8.30;7.57;;;;;;;;;;4980049;28;20909;-42
2023/12/12 07:47:17;;;;;;;12.60;11.50;;;;;;;;;;4984112;28;20428;-43
2023/12/12 07:49:43;;;;;;;8.77;8.07;;;;;;;;;;4980655;28;20425;-43
2023/12/12 07:52:09;;;;;;;7.95;7.35;;;;;;;;;;4982930;28;20187;-43
2023/12/12 07:54:36;;;;;;;9.30;8.57;;;;;;;;;;4981367;28;20514;-43
2023/12/12 07:57:02;;;;;;;8.68;7.97;;;;;;;;;;4987549;28;20503;-43
2023/12/12 07:59:28;;;;;;;8.80;8.10;;;;;;;;;;4982873;28;20192;-43
2023/12/12 08:01:54;;;;;;;8.47;7.77;;;;;;;;;;4979700;28;20832;-43
2023/12/12 08:04:20;;;;;;;9.00;8.20;;;;;;;;;;4982451;28;20842;-43
2023/12/12 08:06:46;;;;;;;8.50;7.87;;;;;;;;;;4981346;28;20805;-43
2023/12/12 08:09:12;;;;;;;12.47;11.47;;;;;;;;;;4980690;28;20438;-43
2023/12/12 08:11:39;;;;;;;14.00;12.88;;;;;;;;;;4985319;28;20637;-42
2023/12/12 08:14:05;;;;;;;10.88;10.07;;;;;;;;;;4980342;28;20185;-43
2023/12/12 08:16:32;;;;;;;12.33;11.43;;;;;;;;;;4965932;28;20206;-43
2023/12/12 08:18:58;;;;;;;11.02;10.23;;;;;;;;;;4957068;28;20826;-43
2023/12/12 08:21:24;;;;;;;11.40;10.57;;;;;;;;;;4973284;28;20263;-43
2023/12/12 08:23:50;;;;;;;10.77;9.97;;;;;;;;;;4954121;28;20417;-42
2023/12/12 08:26:16;;;;;;;11.98;11.07;;;;;;;;;;4968450;28;20417;-43
2023/12/12 08:28:42;;;;;;;10.27;9.48;;;;;;;;;;4961664;28;20181;-43
2023/12/12 08:31:08;;;;;;;10.35;9.55;;;;;;;;;;4960458;28;20251;-44
2023/12/12 08:33:34;;;;;;;11.15;10.30;;;;;;;;;;4969814;28;20178;-43
2023/12/12 08:36:00;;;;;;;10.73;9.90;;;;;;;;;;4953733;28;20202;-42
2023/12/12 08:38:26;;;;;;;14.35;13.25;;;;;;;;;;4971733;28;20416;-42
2023/12/12 08:40:52;;;;;;;11.00;10.15;;;;;;;;;;4958278;28;20196;-43
2023/12/12 08:43:18;;;;;;;11.03;10.20;;;;;;;;;;4964035;28;20684;-43
2023/12/12 08:45:44;;;;;;;11.47;10.57;;;;;;;;;;4966053;28;21070;-43
2023/12/12 08:48:10;;;;;;;10.65;9.85;;;;;;;;;;4955894;28;20422;-43
2023/12/12 08:50:36;;;;;;;10.45;9.65;;;;;;;;;;4972595;28;20198;-43
2023/12/12 08:53:03;;;;;;;10.48;9.68;;;;;;;;;;4954770;28;20690;-43
2023/12/12 08:55:29;;;;;;;10.65;9.85;;;;;;;;;;4960892;28;20283;-43
2023/12/12 08:57:55;;;;;;;11.35;10.55;;;;;;;;;;4976050;28;20599;-44
2023/12/12 09:00:21;;;;;;;11.47;10.67;;;;;;;;;;4970152;28;20198;-43
2023/12/12 09:02:47;;;;;;;12.10;11.20;;;;;;;;;;4957520;28;20422;-43
2023/12/12 09:05:13;;;;;;;11.27;10.47;;;;;;;;;;4957299;28;20178;-44
2023/12/12 09:07:40;;;;;;;11.47;10.67;;;;;;;;;;4974525;28;20415;-44
2023/12/12 09:10:06;;;;;;;10.43;9.65;;;;;;;;;;4962286;28;20421;-43
2023/12/12 09:12:33;;;;;;;12.35;11.48;;;;;;;;;;4966661;28;20187;-42
2023/12/12 09:14:59;;;;;;;13.18;12.23;;;;;;;;;;4970390;28;20549;-43
2023/12/12 09:17:25;;;;;;;15.00;13.90;;;;;;;;;;4959022;28;20175;-43
2023/12/12 09:19:51;;;;;;;14.70;13.70;;;;;;;;;;4975895;28;20193;-43
2023/12/12 09:22:17;;;;;;;14.17;13.20;;;;;;;;;;4958835;28;20452;-43
2023/12/12 09:24:43;;;;;;;14.77;13.67;;;;;;;;;;4969873;28;20471;-43
2023/12/12 09:27:09;;;;;;;12.93;12.03;;;;;;;;;;4966806;28;20452;-43
2023/12/12 09:29:36;;;;;;;14.17;13.27;;;;;;;;;;4961524;28;20948;-43
2023/12/12 09:32:02;;;;;;;16.77;15.60;;;;;;;;;;4974507;28;20410;-43
2023/12/12 09:34:28;;;;;;;15.13;14.13;;;;;;;;;;4956845;28;20174;-43
2023/12/12 09:36:54;;;;;;;15.52;14.50;;;;;;;;;;4973152;28;20800;-43
2023/12/12 09:39:20;;;;;;;16.25;15.20;;;;;;;;;;4962505;28;20678;-43
2023/12/12 09:41:47;;;;;;;16.60;15.50;;;;;;;;;;4965223;28;20308;-43
2023/12/12 09:44:17;;;;;;;16.33;15.25;;;;;;;;;;4970697;28;20465;-43
2023/12/12 09:46:43;;;;;;;18.40;17.10;;;;;;;;;;4957646;28;20280;-43
2023/12/12 09:49:11;;;;;;;16.85;15.70;;;;;;;;;;4975241;28;20170;-43
2023/12/12 09:51:43;;;;;;;17.02;15.93;;;;;;;;;;4958279;28;20189;-43
2023/12/12 09:54:11;;;;;;;16.52;15.43;;;;;;;;;;4970263;28;20181;-43
2023/12/12 09:56:38;;;;;;;16.48;15.48;;;;;;;;;;4972940;28;20216;-43
2023/12/12 09:59:05;;;;;;;19.77;18.38;;;;;;;;;;4983849;28;20549;-43
2023/12/12 10:01:34;;;;;;;22.27;20.88;;;;;;;;;;4982990;28;20183;-43
2023/12/12 10:04:01;;;;;;;26.50;24.92;;;;;;;;;;4984524;28;20180;-44
2023/12/12 10:06:29;;;;;;;23.60;22.23;;;;;;;;;;4986488;28;20180;-43
2023/12/12 10:08:57;;;;;;;23.90;22.50;;;;;;;;;;4983108;28;20198;-43
2023/12/12 10:11:24;;;;;;;26.13;24.42;;;;;;;;;;4986754;28;20184;-43
2023/12/12 10:13:50;;;;;;;21.27;19.98;;;;;;;;;;4984237;28;20679;-43
2023/12/12 10:16:17;;;;;;;24.38;22.80;;;;;;;;;;4986215;28;20310;-43
2023/12/12 10:18:46;;;;;;;27.90;26.20;;;;;;;;;;4979292;28;20174;-43
2023/12/12 10:21:16;;;;;;;26.37;24.87;;;;;;;;;;4970845;28;20287;-43
2023/12/12 10:23:49;;;;;;;27.87;26.17;;;;;;;;;;4955991;28;20405;-43
2023/12/12 10:26:15;;;;;;;27.17;25.63;;;;;;;;;;4955739;28;20449;-43
2023/12/12 10:28:42;;;;;;;28.23;26.53;;;;;;;;;;4971429;28;20408;-43
2023/12/12 10:31:09;;;;;;;26.47;24.87;;;;;;;;;;4961335;28;20446;-43
2023/12/12 10:33:35;;;;;;;25.70;24.20;;;;;;;;;;4964007;28;20916;-43
2023/12/12 10:36:03;;;;;;;29.47;27.77;;;;;;;;;;4970349;28;20471;-43
2023/12/12 10:38:29;;;;;;;30.17;28.27;;;;;;;;;;4955796;28;20412;-43
2023/12/12 10:41:09;;;;;;;26.33;24.73;;;;;;;;;;4974811;28;20436;-43
2023/12/12 10:43:35;;;;;;;25.40;24.00;;;;;;;;;;4956788;28;20441;-44
2023/12/12 10:46:02;;;;;;;24.50;23.10;;;;;;;;;;4969216;28;20917;-44
2023/12/12 10:48:28;;;;;;;30.47;28.40;;;;;;;;;;4964239;28;20425;-44
2023/12/12 10:50:55;;;;;;;24.53;23.13;;;;;;;;;;4961194;28;20436;-43
2023/12/12 10:53:23;;;;;;;25.33;23.83;;;;;;;;;;4972133;28;20425;-43
2023/12/12 10:55:50;;;;;;;24.53;23.13;;;;;;;;;;4964593;28;20970;-43
2023/12/12 10:58:16;;;;;;;23.20;21.87;;;;;;;;;;4973829;28;20437;-43
2023/12/12 11:00:42;;;;;;;26.13;24.67;;;;;;;;;;4960137;28;20864;-43
2023/12/12 11:03:08;;;;;;;26.67;25.07;;;;;;;;;;4955424;28;20769;-43
2023/12/12 11:05:34;;;;;;;21.40;20.20;;;;;;;;;;4961009;28;20949;-43
2023/12/12 11:08:00;;;;;;;23.43;22.03;;;;;;;;;;4972036;28;20893;-43
2023/12/12 11:10:26;;;;;;;24.27;22.87;;;;;;;;;;4954702;28;20817;-43
2023/12/12 11:12:53;;;;;;;28.33;26.60;;;;;;;;;;4967235;28;20413;-43
2023/12/12 11:15:20;;;;;;;23.00;21.67;;;;;;;;;;4973966;28;20457;-44
2023/12/12 11:17:47;;;;;;;24.40;22.90;;;;;;;;;;4964310;28;20504;-43
2023/12/12 11:20:17;;;;;;;22.23;20.93;;;;;;;;;;4959919;28;20433;-43
2023/12/12 11:22:43;;;;;;;23.50;22.10;;;;;;;;;;4971507;28;20417;-43
2023/12/12 11:25:15;;;;;;;22.83;21.57;;;;;;;;;;4954699;28;20804;-43
2023/12/12 11:27:44;;;;;;;23.83;22.53;;;;;;;;;;4973418;28;20416;-44
2023/12/12 11:30:11;;;;;;;23.60;22.30;;;;;;;;;;4958201;28;20520;-43
2023/12/12 11:32:37;;;;;;;23.67;22.37;;;;;;;;;;4965733;28;20503;-43
2023/12/12 11:35:09;;;;;;;21.97;20.77;;;;;;;;;;4966306;28;20421;-43
2023/12/12 11:37:41;;;;;;;23.53;22.33;;;;;;;;;;4958438;28;20498;-43
2023/12/12 11:40:09;;;;;;;23.13;21.87;;;;;;;;;;4972307;28;20431;-43
2023/12/12 11:42:35;;;;;;;23.75;22.55;;;;;;;;;;4954534;28;20631;-43
2023/12/12 11:45:02;;;;;;;24.67;23.37;;;;;;;;;;4970889;28;20173;-43
2023/12/12 11:47:31;;;;;;;23.50;22.20;;;;;;;;;;4960669;28;20503;-43
2023/12/12 11:50:18;;;;;;;26.23;24.83;;;;;;;;;;4963039;28;20226;-43
2023/12/12 11:52:45;;;;;;;22.87;21.70;;;;;;;;;;4965549;28;20177;-43
2023/12/12 11:55:18;;;;;;;26.27;24.87;;;;;;;;;;4954523;28;20457;-43
2023/12/12 11:57:44;;;;;;;27.33;25.77;;;;;;;;;;4954187;28;20434;-43
2023/12/12 12:00:13;;;;;;;24.47;23.07;;;;;;;;;;4972306;28;20536;-43
2023/12/12 12:02:40;;;;;;;26.93;25.53;;;;;;;;;;4972591;28;20429;-43
2023/12/12 12:05:06;;;;;;;25.83;24.58;;;;;;;;;;4960072;28;20420;-43
2023/12/12 12:07:32;;;;;;;25.20;24.00;;;;;;;;;;4962752;28;20174;-43
2023/12/12 12:09:58;;;;;;;25.03;23.67;;;;;;;;;;4967596;28;20935;-43
2023/12/12 12:12:24;;;;;;;29.33;27.73;;;;;;;;;;4954741;28;20405;-43
2023/12/12 12:14:50;;;;;;;25.00;23.77;;;;;;;;;;4973183;28;20981;-43
2023/12/12 12:17:16;;;;;;;32.03;30.40;;;;;;;;;;4956427;28;20517;-43
2023/12/12 12:19:42;;;;;;;37.90;36.03;;;;;;;;;;4965840;28;20450;-43
2023/12/12 12:22:10;;;;;;;39.47;37.40;;;;;;;;;;4964341;28;20410;-43
2023/12/12 12:24:42;;;;;;;46.83;44.30;;;;;;;;;;4958282;28;20424;-43
2023/12/12 12:27:08;;;;;;;32.17;30.47;;;;;;;;;;4971139;28;20496;-43
2023/12/12 12:29:34;;;;;;;32.43;30.83;;;;;;;;;;4953298;28;20444;-44
2023/12/12 12:32:14;;;;;;;36.23;34.10;;;;;;;;;;4968648;28;20417;-43
2023/12/12 12:34:40;;;;;;;35.70;33.90;;;;;;;;;;4957904;28;20418;-43
2023/12/12 12:37:06;;;;;;;33.83;32.13;;;;;;;;;;4964201;28;20469;-43
2023/12/12 12:39:42;;;;;;;43.20;40.97;;;;;;;;;;4965206;28;20467;-43
2023/12/12 12:42:08;;;;;;;45.97;43.22;;;;;;;;;;4957550;28;20432;-43
2023/12/12 12:44:34;;;;;;;37.38;35.40;;;;;;;;;;4972368;28;20165;-43
2023/12/12 12:47:00;;;;;;;40.97;38.67;;;;;;;;;;4953480;28;20253;-43
2023/12/12 12:49:26;;;;;;;36.83;34.90;;;;;;;;;;4968513;28;20999;-42
2023/12/12 12:51:52;;;;;;;27.40;26.00;;;;;;;;;;4960747;28;20425;-43
2023/12/12 12:54:18;;;;;;;35.33;33.43;;;;;;;;;;4960868;28;20421;-43
2023/12/12 12:56:44;;;;;;;41.73;38.93;;;;;;;;;;4971852;28;20463;-42
2023/12/12 12:59:14;;;;;;;38.75;36.45;;;;;;;;;;4972000;28;20412;-44
2023/12/12 13:01:41;;;;;;;35.08;33.08;;;;;;;;;;4953264;28;20182;-43
2023/12/12 13:04:07;;;;;;;44.05;41.55;;;;;;;;;;4968876;28;20177;-43
2023/12/12 13:06:33;;;;;;;40.15;37.78;;;;;;;;;;4960515;28;20189;-43
2023/12/12 13:08:59;;;;;;;46.63;43.50;;;;;;;;;;4960473;28;20217;-43
2023/12/12 13:11:25;;;;;;;44.30;41.50;;;;;;;;;;4968543;28;20210;-43
2023/12/12 13:13:51;;;;;;;49.20;45.97;;;;;;;;;;4953440;28;20423;-43
2023/12/12 13:16:19;;;;;;;44.13;41.33;;;;;;;;;;4972069;28;20546;-43
2023/12/12 13:18:46;;;;;;;48.03;44.55;;;;;;;;;;4956618;28;20469;-43
2023/12/12 13:21:12;;;;;;;48.38;44.97;;;;;;;;;;4964376;28;20192;-43
2023/12/12 13:23:38;;;;;;;47.47;44.37;;;;;;;;;;4964652;28;20187;-43
2023/12/12 13:26:07;;;;;;;49.53;45.83;;;;;;;;;;4956736;28;20472;-43
2023/12/12 13:28:33;;;;;;;47.92;43.72;;;;;;;;;;4971846;28;20896;-43
2023/12/12 13:30:59;;;;;;;42.93;39.90;;;;;;;;;;4953044;28;20188;-43
2023/12/12 13:33:25;;;;;;;46.00;42.63;;;;;;;;;;4953311;28;20631;-42
2023/12/12 13:35:51;;;;;;;44.27;41.20;;;;;;;;;;4964207;28;20480;-43
2023/12/12 13:38:17;;;;;;;45.33;42.03;;;;;;;;;;4964430;28;20969;-43
2023/12/12 13:40:43;;;;;;;45.10;41.80;;;;;;;;;;4956278;28;20189;-43
2023/12/12 13:43:09;;;;;;;40.63;37.83;;;;;;;;;;4974776;28;20402;-43
2023/12/12 13:45:36;;;;;;;38.90;36.58;;;;;;;;;;4957021;28;20465;-43
2023/12/12 13:48:02;;;;;;;39.65;36.97;;;;;;;;;;4971333;28;20179;-43
2023/12/12 13:50:31;;;;;;;40.55;37.88;;;;;;;;;;4963934;28;20254;-43
2023/12/12 13:52:56;;;;;;;41.92;39.05;;;;;;;;;;4963604;28;20198;-43
2023/12/12 13:55:22;;;;;;;45.23;42.10;;;;;;;;;;4975014;28;20265;-43
2023/12/12 13:57:48;;;;;;;44.93;41.23;;;;;;;;;;4975827;28;20397;-43
2023/12/12 14:00:15;;;;;;;48.00;43.57;;;;;;;;;;4956078;28;20493;-43
2023/12/12 14:02:41;;;;;;;44.17;39.88;;;;;;;;;;4970707;28;20987;-43
2023/12/12 14:05:07;;;;;;;46.27;41.80;;;;;;;;;;4964234;28;20186;-43
2023/12/12 14:07:33;;;;;;;29.83;27.25;;;;;;;;;;4962935;28;20445;-43
2023/12/12 14:09:59;;;;;;;28.50;26.37;;;;;;;;;;4971861;28;20210;-43
2023/12/12 14:12:25;;;;;;;38.67;35.23;;;;;;;;;;4955934;28;20460;-44
2023/12/12 14:14:51;;;;;;;27.57;25.13;;;;;;;;;;4974221;28;20961;-42
2023/12/12 14:17:17;;;;;;;32.80;30.40;;;;;;;;;;4958843;28;20473;-43
2023/12/12 14:19:43;;;;;;;27.27;25.00;;;;;;;;;;4964465;28;20444;-43
2023/12/12 14:22:09;;;;;;;25.30;23.23;;;;;;;;;;4968510;28;20416;-43